Harry B. Settoon — WDE5658 — position and weather

sailwx.info

Track history (hours):
 
Tides and Currents Weather Stations Pressure Air Temp Water Temp Dewpoint Dewpoint Depression Visibility Wind Speed Wind Dir Waves Ship Positions

Harry B. Settoon

Owner: Settoon Towing, LLC, Houma, LA. More information available from US FCC via Universal Licensing System and Coast Guard Vessel Documentation Center.

Last reported at 2017-Dec-15 11:41 UTC. Time now 2017-Dec-17 04:30 UTC.
Position N 29°23' W 090°44'.

Length 16 m.

Type: Tug. MMSI: 367369920.

Date/timePositionNaut miles runAvg speedWind from/ knotsBaromVisibWave heightAir tempDewpointWater temp
2017-Dec-15 11:41N 29°23' W 090°44'1 5.8
2017-Dec-15 11:27N 29°24' W 090°44'3 5.7
2017-Dec-15 11:00N 29°27' W 090°43'3 5.8
2017-Dec-15 10:30N 29°30' W 090°43'3 5.5
2017-Dec-15 10:00N 29°32' W 090°42'2 3.6
2017-Dec-15 09:30N 29°34' W 090°43'2 4.7
2017-Dec-15 09:00N 29°33' W 090°46'2 4.2
2017-Dec-15 08:29N 29°32' W 090°48'3 5.3
2017-Dec-15 08:00N 29°32' W 090°51'9 0.6
2017-Dec-14 17:37N 29°37' W 090°59'2 6.7
2017-Dec-14 17:23N 29°36' W 090°58'3 6.6
2017-Dec-14 17:00N 29°34' W 090°56'3 6.7
2017-Dec-14 16:30N 29°32' W 090°53'3 6.4
2017-Dec-14 16:00N 29°32' W 090°49'5 5.5
2017-Dec-14 15:00N 29°34' W 090°43'1 1.6
2017-Dec-14 14:30N 29°34' W 090°43'0 0.1
2017-Dec-14 14:00N 29°34' W 090°43'2 4.5
2017-Dec-14 13:30N 29°31' W 090°42'3 6.3
2017-Dec-14 13:00N 29°28' W 090°43'3 5.6
2017-Dec-14 12:28N 29°25' W 090°43'4 0.2
2017-Dec-13 10:02N 29°21' W 090°44'2 6.2
2017-Dec-13 09:42N 29°23' W 090°44'1 4.8
2017-Dec-13 09:28N 29°24' W 090°44'3 6.1
2017-Dec-13 09:00N 29°27' W 090°43'3 6.1
2017-Dec-13 08:30N 29°30' W 090°43'3 5.9
2017-Dec-13 08:00N 29°33' W 090°42'2 3.1
2017-Dec-13 07:30N 29°34' W 090°44'2 4.6
2017-Dec-13 07:00N 29°32' W 090°46'3 5.6
2017-Dec-13 06:30N 29°32' W 090°49'125 3.4
2017-Dec-11 18:11N 29°56' W 093°10'1 5.8
2017-Dec-11 18:00N 29°57' W 093°11'3 5.7
2017-Dec-11 17:30N 29°59' W 093°13'2 4.8
2017-Dec-11 17:00N 30°01' W 093°14'2 4.9
2017-Dec-11 16:30N 30°03' W 093°16'3 5.4
2017-Dec-11 16:00N 30°05' W 093°18'1 1.8
2017-Dec-11 15:30N 30°06' W 093°18'0 0.0
2017-Dec-11 14:29N 30°06' W 093°18'0 0.0
2017-Dec-11 14:00N 30°06' W 093°18'0 0.0
2017-Dec-11 13:30N 30°06' W 093°18'0 0.0
2017-Dec-11 13:00N 30°06' W 093°18'0 0.0
2017-Dec-11 12:30N 30°06' W 093°18'0 0.0
2017-Dec-11 12:00N 30°06' W 093°18'2 3.1
2017-Dec-11 11:30N 30°07' W 093°20'2 3.2
2017-Dec-11 11:00N 30°08' W 093°19'0 0.0
2017-Dec-11 10:30N 30°08' W 093°19'0 0.0
2017-Dec-11 10:00N 30°08' W 093°19'0 0.0
2017-Dec-11 09:30N 30°08' W 093°19'0 0.0
2017-Dec-11 09:00N 30°08' W 093°19'0 0.0
2017-Dec-11 08:30N 30°08' W 093°19'0 0.0
2017-Dec-11 08:00N 30°08' W 093°19'0 0.0
2017-Dec-11 07:30N 30°08' W 093°19'0 0.0
2017-Dec-11 07:00N 30°08' W 093°19'0 0.0
2017-Dec-11 06:30N 30°08' W 093°19'0 0.0
2017-Dec-11 06:00N 30°08' W 093°19'0 0.1
2017-Dec-11 05:30N 30°08' W 093°19'0 0.0
2017-Dec-11 05:00N 30°08' W 093°19'0 0.1
2017-Dec-11 04:30N 30°08' W 093°19'3 5.0
2017-Dec-11 04:00N 30°06' W 093°19'1 2.0
2017-Dec-11 03:30N 30°06' W 093°19'0 0.0
2017-Dec-11 03:00N 30°06' W 093°19'0 0.0
2017-Dec-11 02:30N 30°06' W 093°19'0 0.0
2017-Dec-11 02:00N 30°06' W 093°19'0 0.0
2017-Dec-11 01:30N 30°06' W 093°19'0 0.0
2017-Dec-11 01:00N 30°06' W 093°19'0 0.0
2017-Dec-11 00:30N 30°06' W 093°19'0 0.0
2017-Dec-11 00:00N 30°06' W 093°19'0 0.0
2017-Dec-10 23:30N 30°06' W 093°19'0 0.0
2017-Dec-10 23:00N 30°06' W 093°19'0 0.0
2017-Dec-10 22:30N 30°06' W 093°19'0 0.0
2017-Dec-10 22:00N 30°06' W 093°19'0 0.0
2017-Dec-10 21:30N 30°06' W 093°19'0 0.0
2017-Dec-10 21:00N 30°06' W 093°19'0 0.0
2017-Dec-10 20:30N 30°06' W 093°19'0 0.0
2017-Dec-10 20:00N 30°06' W 093°19'0 0.0
2017-Dec-10 19:30N 30°06' W 093°19'0 0.1
2017-Dec-10 19:00N 30°06' W 093°19'0 0.0
2017-Dec-10 18:30N 30°06' W 093°19'0 0.0
2017-Dec-10 18:00N 30°06' W 093°19'0 0.0
2017-Dec-10 17:30N 30°06' W 093°19'0 0.0
2017-Dec-10 17:00N 30°06' W 093°19'0 0.1
2017-Dec-10 16:30N 30°06' W 093°19'2 3.3
2017-Dec-10 16:00N 30°05' W 093°17'1 1.8
2017-Dec-10 15:30N 30°05' W 093°16'2 5.0
2017-Dec-10 15:00N 30°02' W 093°15'3 5.1
2017-Dec-10 14:30N 30°00' W 093°14'3 5.6
2017-Dec-10 14:00N 29°58' W 093°11'3 5.5
2017-Dec-10 13:30N 29°56' W 093°09'3 5.4
2017-Dec-10 13:00N 29°56' W 093°06'3 5.2
2017-Dec-10 12:30N 29°56' W 093°03'2 4.5
2017-Dec-10 12:00N 29°56' W 093°01'3 5.1
2017-Dec-10 11:29N 29°56' W 092°58'30 4.8
2017-Dec-10 05:15N 29°53' W 092°23'1 4.6
2017-Dec-10 05:00N 29°52' W 092°22'2 4.0
2017-Dec-10 04:30N 29°51' W 092°21'2 4.0
2017-Dec-10 04:00N 29°50' W 092°18'2 4.5
2017-Dec-10 03:30N 29°49' W 092°16'2 4.9
2017-Dec-10 03:00N 29°48' W 092°14'2 4.2
2017-Dec-10 02:30N 29°47' W 092°12'2 5.0
2017-Dec-10 02:00N 29°47' W 092°09'2 5.0
2017-Dec-10 01:30N 29°48' W 092°06'2 4.9
2017-Dec-10 01:00N 29°49' W 092°03'3 4.6
2017-Dec-10 00:28N 29°50' W 092°01'  
Track history (hours):
 
Tides and Currents Weather Stations Pressure Air Temp Water Temp Dewpoint Dewpoint Depression Visibility Wind Speed Wind Dir Waves Ship Positions

Harry B. Settoon

Owner: Settoon Towing, LLC, Houma, LA. More information available from US FCC via Universal Licensing System and Coast Guard Vessel Documentation Center.

Last reported at 2017-Dec-15 11:41 UTC. Time now 2017-Dec-17 04:30 UTC.
Position N 29°23' W 090°44'.

Length 16 m.

Type: Tug. MMSI: 367369920.

Date/timePositionNaut miles runAvg speedWind from/ knotsBaromVisibWave heightAir tempDewpointWater temp
2017-Dec-15 11:41N 29°23' W 090°44'1 5.8
2017-Dec-15 11:27N 29°24' W 090°44'3 5.7
2017-Dec-15 11:00N 29°27' W 090°43'3 5.8
2017-Dec-15 10:30N 29°30' W 090°43'3 5.5
2017-Dec-15 10:00N 29°32' W 090°42'2 3.6
2017-Dec-15 09:30N 29°34' W 090°43'2 4.7
2017-Dec-15 09:00N 29°33' W 090°46'2 4.2
2017-Dec-15 08:29N 29°32' W 090°48'3 5.3
2017-Dec-15 08:00N 29°32' W 090°51'9 0.6
2017-Dec-14 17:37N 29°37' W 090°59'2 6.7
2017-Dec-14 17:23N 29°36' W 090°58'3 6.6
2017-Dec-14 17:00N 29°34' W 090°56'3 6.7
2017-Dec-14 16:30N 29°32' W 090°53'3 6.4
2017-Dec-14 16:00N 29°32' W 090°49'5 5.5
2017-Dec-14 15:00N 29°34' W 090°43'1 1.6
2017-Dec-14 14:30N 29°34' W 090°43'0 0.1
2017-Dec-14 14:00N 29°34' W 090°43'2 4.5
2017-Dec-14 13:30N 29°31' W 090°42'3 6.3
2017-Dec-14 13:00N 29°28' W 090°43'3 5.6
2017-Dec-14 12:28N 29°25' W 090°43'4 0.2
2017-Dec-13 10:02N 29°21' W 090°44'2 6.2
2017-Dec-13 09:42N 29°23' W 090°44'1 4.8
2017-Dec-13 09:28N 29°24' W 090°44'3 6.1
2017-Dec-13 09:00N 29°27' W 090°43'3 6.1
2017-Dec-13 08:30N 29°30' W 090°43'3 5.9
2017-Dec-13 08:00N 29°33' W 090°42'2 3.1
2017-Dec-13 07:30N 29°34' W 090°44'2 4.6
2017-Dec-13 07:00N 29°32' W 090°46'3 5.6
2017-Dec-13 06:30N 29°32' W 090°49'125 3.4
2017-Dec-11 18:11N 29°56' W 093°10'1 5.8
2017-Dec-11 18:00N 29°57' W 093°11'3 5.7
2017-Dec-11 17:30N 29°59' W 093°13'2 4.8
2017-Dec-11 17:00N 30°01' W 093°14'2 4.9
2017-Dec-11 16:30N 30°03' W 093°16'3 5.4
2017-Dec-11 16:00N 30°05' W 093°18'1 1.8
2017-Dec-11 15:30N 30°06' W 093°18'0 0.0
2017-Dec-11 14:29N 30°06' W 093°18'0 0.0
2017-Dec-11 14:00N 30°06' W 093°18'0 0.0
2017-Dec-11 13:30N 30°06' W 093°18'0 0.0
2017-Dec-11 13:00N 30°06' W 093°18'0 0.0
2017-Dec-11 12:30N 30°06' W 093°18'0 0.0
2017-Dec-11 12:00N 30°06' W 093°18'2 3.1
2017-Dec-11 11:30N 30°07' W 093°20'2 3.2
2017-Dec-11 11:00N 30°08' W 093°19'0 0.0
2017-Dec-11 10:30N 30°08' W 093°19'0 0.0
2017-Dec-11 10:00N 30°08' W 093°19'0 0.0
2017-Dec-11 09:30N 30°08' W 093°19'0 0.0
2017-Dec-11 09:00N 30°08' W 093°19'0 0.0
2017-Dec-11 08:30N 30°08' W 093°19'0 0.0
2017-Dec-11 08:00N 30°08' W 093°19'0 0.0
2017-Dec-11 07:30N 30°08' W 093°19'0 0.0
2017-Dec-11 07:00N 30°08' W 093°19'0 0.0
2017-Dec-11 06:30N 30°08' W 093°19'0 0.0
2017-Dec-11 06:00N 30°08' W 093°19'0 0.1
2017-Dec-11 05:30N 30°08' W 093°19'0 0.0
2017-Dec-11 05:00N 30°08' W 093°19'0 0.1
2017-Dec-11 04:30N 30°08' W 093°19'3 5.0
2017-Dec-11 04:00N 30°06' W 093°19'1 2.0
2017-Dec-11 03:30N 30°06' W 093°19'0 0.0
2017-Dec-11 03:00N 30°06' W 093°19'0 0.0
2017-Dec-11 02:30N 30°06' W 093°19'0 0.0
2017-Dec-11 02:00N 30°06' W 093°19'0 0.0
2017-Dec-11 01:30N 30°06' W 093°19'0 0.0
2017-Dec-11 01:00N 30°06' W 093°19'0 0.0
2017-Dec-11 00:30N 30°06' W 093°19'0 0.0
2017-Dec-11 00:00N 30°06' W 093°19'0 0.0
2017-Dec-10 23:30N 30°06' W 093°19'0 0.0
2017-Dec-10 23:00N 30°06' W 093°19'0 0.0
2017-Dec-10 22:30N 30°06' W 093°19'0 0.0
2017-Dec-10 22:00N 30°06' W 093°19'0 0.0
2017-Dec-10 21:30N 30°06' W 093°19'0 0.0
2017-Dec-10 21:00N 30°06' W 093°19'0 0.0
2017-Dec-10 20:30N 30°06' W 093°19'0 0.0
2017-Dec-10 20:00N 30°06' W 093°19'0 0.0
2017-Dec-10 19:30N 30°06' W 093°19'0 0.1
2017-Dec-10 19:00N 30°06' W 093°19'0 0.0
2017-Dec-10 18:30N 30°06' W 093°19'0 0.0
2017-Dec-10 18:00N 30°06' W 093°19'0 0.0
2017-Dec-10 17:30N 30°06' W 093°19'0 0.0
2017-Dec-10 17:00N 30°06' W 093°19'0 0.1
2017-Dec-10 16:30N 30°06' W 093°19'2 3.3
2017-Dec-10 16:00N 30°05' W 093°17'1 1.8
2017-Dec-10 15:30N 30°05' W 093°16'2 5.0
2017-Dec-10 15:00N 30°02' W 093°15'3 5.1
2017-Dec-10 14:30N 30°00' W 093°14'3 5.6
2017-Dec-10 14:00N 29°58' W 093°11'3 5.5
2017-Dec-10 13:30N 29°56' W 093°09'3 5.4
2017-Dec-10 13:00N 29°56' W 093°06'3 5.2
2017-Dec-10 12:30N 29°56' W 093°03'2 4.5
2017-Dec-10 12:00N 29°56' W 093°01'3 5.1
2017-Dec-10 11:29N 29°56' W 092°58'30 4.8
2017-Dec-10 05:15N 29°53' W 092°23'1 4.6
2017-Dec-10 05:00N 29°52' W 092°22'2 4.0
2017-Dec-10 04:30N 29°51' W 092°21'2 4.0
2017-Dec-10 04:00N 29°50' W 092°18'2 4.5
2017-Dec-10 03:30N 29°49' W 092°16'2 4.9
2017-Dec-10 03:00N 29°48' W 092°14'2 4.2
2017-Dec-10 02:30N 29°47' W 092°12'2 5.0
2017-Dec-10 02:00N 29°47' W 092°09'2 5.0
2017-Dec-10 01:30N 29°48' W 092°06'2 4.9
2017-Dec-10 01:00N 29°49' W 092°03'3 4.6
2017-Dec-10 00:28N 29°50' W 092°01'  

Dump ship's entire track history